createdAt,value
2022-12-24T00:01:04.412Z,1.48
2022-12-24T00:03:31.458Z,1.92
2022-12-24T00:05:58.527Z,1.60
2022-12-24T00:08:25.300Z,1.65
2022-12-24T00:10:53.625Z,1.33
2022-12-24T00:13:21.759Z,1.67
2022-12-24T00:15:49.027Z,1.77
2022-12-24T00:18:16.214Z,1.60
2022-12-24T00:20:49.311Z,1.50
2022-12-24T00:23:17.481Z,1.70
2022-12-24T00:25:44.538Z,1.60
2022-12-24T00:28:12.554Z,1.65
2022-12-24T00:30:41.265Z,1.48
2022-12-24T00:33:08.163Z,1.88
2022-12-24T00:35:36.233Z,1.60
2022-12-24T00:38:03.934Z,1.50
2022-12-24T00:40:31.814Z,1.83
2022-12-24T00:42:59.069Z,2.00
2022-12-24T00:45:28.219Z,1.50
2022-12-24T00:47:55.045Z,1.60
2022-12-24T00:50:21.852Z,1.50
2022-12-24T00:52:48.558Z,1.40
2022-12-24T00:55:15.516Z,1.65
2022-12-24T00:57:42.269Z,1.40
2022-12-24T01:00:09.585Z,1.70
2022-12-24T01:02:36.490Z,1.70
2022-12-24T01:05:12.189Z,1.55
2022-12-24T01:07:41.297Z,1.20
2022-12-24T01:10:09.768Z,1.50
2022-12-24T01:12:36.821Z,1.90
2022-12-24T01:15:04.195Z,1.50
2022-12-24T01:17:35.498Z,1.42
2022-12-24T01:20:03.321Z,1.45
2022-12-24T01:22:30.064Z,1.60
2022-12-24T01:24:56.779Z,1.48
2022-12-24T01:27:23.657Z,1.45
2022-12-24T01:29:50.406Z,1.40
2022-12-24T01:32:17.159Z,1.20
2022-12-24T01:34:43.939Z,1.13
2022-12-24T01:37:10.799Z,1.30
2022-12-24T01:39:37.553Z,1.40
2022-12-24T01:42:40.898Z,1.20
2022-12-24T01:45:42.184Z,1.50
2022-12-24T01:48:34.055Z,1.20
2022-12-24T01:51:30.428Z,1.30
2022-12-24T01:54:03.604Z,1.40
2022-12-24T01:56:32.641Z,1.30
2022-12-24T01:59:06.542Z,1.27
2022-12-24T02:01:33.636Z,1.35
2022-12-24T02:04:04.897Z,1.30
2022-12-24T02:06:31.752Z,1.30
2022-12-24T02:08:58.514Z,1.40
2022-12-24T02:11:25.240Z,1.35
2022-12-24T02:14:00.122Z,1.20
2022-12-24T02:16:29.855Z,1.50
2022-12-24T02:19:34.446Z,1.30
2022-12-24T02:22:16.282Z,1.40
2022-12-24T02:25:16.252Z,1.63
2022-12-24T02:28:04.190Z,1.33
2022-12-24T02:30:38.675Z,1.60
2022-12-24T02:36:04.531Z,1.50
2022-12-24T02:38:39.126Z,1.50
2022-12-24T02:41:12.414Z,1.38
2022-12-24T02:43:44.022Z,1.42
2022-12-24T02:46:24.317Z,1.70
2022-12-24T02:48:51.751Z,1.75
2022-12-24T02:51:24.225Z,1.40
2022-12-24T02:53:51.049Z,1.50
2022-12-24T02:56:38.204Z,1.58
2022-12-24T02:59:25.945Z,1.23
2022-12-24T03:02:43.959Z,1.60
2022-12-24T03:05:22.943Z,1.40
2022-12-24T03:08:19.692Z,1.55
2022-12-24T03:11:01.940Z,1.40
2022-12-24T03:13:29.352Z,1.40
2022-12-24T03:15:56.448Z,1.30
2022-12-24T03:18:25.778Z,1.30
2022-12-24T03:21:01.771Z,1.75
2022-12-24T03:23:28.630Z,1.70
2022-12-24T03:25:55.463Z,1.42
2022-12-24T03:28:26.853Z,1.40
2022-12-24T03:30:53.642Z,1.70
2022-12-24T03:33:21.267Z,1.50
2022-12-24T03:35:48.444Z,1.63
2022-12-24T03:38:15.101Z,1.65
2022-12-24T03:40:41.901Z,1.60
2022-12-24T03:43:08.629Z,1.50
2022-12-24T03:45:35.544Z,1.38
2022-12-24T03:48:02.321Z,1.30
2022-12-24T03:50:29.141Z,1.50
2022-12-24T03:52:56.046Z,1.58
2022-12-24T03:55:23.162Z,1.52
2022-12-24T03:57:50.318Z,1.50
2022-12-24T04:00:17.738Z,1.70
2022-12-24T04:02:44.580Z,1.90
2022-12-24T04:05:18.997Z,1.58
2022-12-24T04:07:46.620Z,1.35
2022-12-24T04:10:14.206Z,1.40
2022-12-24T04:12:41.119Z,1.30
2022-12-24T04:15:08.832Z,1.67
2022-12-24T04:17:35.761Z,1.45
2022-12-24T04:20:02.458Z,1.92
2022-12-24T04:22:29.123Z,1.73
2022-12-24T04:24:55.837Z,1.80
2022-12-24T04:27:28.254Z,1.50
2022-12-24T04:32:25.323Z,1.45
2022-12-24T04:34:52.027Z,1.60
2022-12-24T04:37:18.696Z,1.27
2022-12-24T04:39:45.388Z,1.30
2022-12-24T04:42:12.046Z,1.70
2022-12-24T04:44:38.751Z,1.45
2022-12-24T04:47:05.395Z,1.30
2022-12-24T04:49:32.098Z,1.20
2022-12-24T04:51:58.800Z,1.48
2022-12-24T04:54:25.500Z,1.83
2022-12-24T04:56:52.222Z,1.90
2022-12-24T04:59:18.937Z,1.70
2022-12-24T05:01:45.715Z,1.60
2022-12-24T05:04:12.514Z,1.35
2022-12-24T05:06:39.236Z,1.45
2022-12-24T05:09:06.026Z,1.50
2022-12-24T05:11:32.819Z,1.23
2022-12-24T05:13:59.679Z,1.30
2022-12-24T05:16:26.433Z,1.52
2022-12-24T05:18:53.616Z,1.48
2022-12-24T05:21:22.716Z,1.50
2022-12-24T05:24:08.639Z,1.55
2022-12-24T05:26:53.635Z,1.40
2022-12-24T05:29:20.736Z,1.48
2022-12-24T05:31:47.561Z,1.48
2022-12-24T05:34:15.437Z,1.52
2022-12-24T05:36:43.537Z,1.80
2022-12-24T05:39:18.369Z,1.58
2022-12-24T05:41:45.742Z,1.70
2022-12-24T05:44:12.921Z,1.60
2022-12-24T05:46:39.813Z,1.67
2022-12-24T05:49:06.599Z,1.80
2022-12-24T05:51:33.435Z,1.75
2022-12-24T05:54:00.196Z,1.63
2022-12-24T05:56:27.237Z,2.33
2022-12-24T05:58:54.875Z,1.80
2022-12-24T06:01:23.266Z,1.42
2022-12-24T06:03:50.888Z,2.00
2022-12-24T06:06:21.293Z,1.77
2022-12-24T06:08:49.084Z,1.45
2022-12-24T06:11:19.021Z,1.83
2022-12-24T06:13:46.340Z,1.60
2022-12-24T06:16:15.896Z,2.45
2022-12-24T06:18:43.000Z,11.25
2022-12-24T06:21:10.444Z,2.00
2022-12-24T06:23:39.227Z,1.63
2022-12-24T06:26:07.758Z,1.60
2022-12-24T06:28:37.404Z,2.08
2022-12-24T06:31:05.985Z,1.90
2022-12-24T06:33:33.800Z,1.67
2022-12-24T06:36:00.619Z,2.08
2022-12-24T06:38:29.478Z,1.98
2022-12-24T06:40:56.156Z,1.85
2022-12-24T06:43:23.122Z,2.30
2022-12-24T06:45:50.436Z,2.00
2022-12-24T06:48:17.585Z,3.45
2022-12-24T06:50:44.326Z,2.40
2022-12-24T06:53:11.468Z,2.10
2022-12-24T06:55:38.469Z,1.95
2022-12-24T06:58:05.214Z,1.95
2022-12-24T07:00:32.068Z,2.88
2022-12-24T07:02:58.951Z,2.00
2022-12-24T07:05:25.874Z,2.72
2022-12-24T07:07:52.648Z,3.03
2022-12-24T07:10:20.683Z,2.00
2022-12-24T07:12:48.248Z,1.75
2022-12-24T07:15:16.325Z,2.38
2022-12-24T07:17:43.131Z,2.97
2022-12-24T07:20:13.953Z,2.72
2022-12-24T07:22:40.763Z,2.03
2022-12-24T07:25:07.961Z,2.10
2022-12-24T07:27:35.722Z,3.30
2022-12-24T07:30:03.130Z,3.55
2022-12-24T07:32:29.845Z,5.72
2022-12-24T07:34:56.546Z,2.95
2022-12-24T07:37:23.210Z,4.30
2022-12-24T07:39:49.964Z,2.55
2022-12-24T07:42:16.688Z,2.67
2022-12-24T07:44:43.389Z,10.38
2022-12-24T07:47:10.422Z,8.30
2022-12-24T07:49:37.177Z,6.82
2022-12-24T07:52:04.281Z,2.67
2022-12-24T07:54:31.087Z,6.85
2022-12-24T07:56:57.866Z,6.07
2022-12-24T07:59:24.638Z,4.07
2022-12-24T08:01:51.553Z,3.83
2022-12-24T08:04:18.479Z,3.88
2022-12-24T08:06:45.223Z,2.92
2022-12-24T08:09:14.244Z,3.20
2022-12-24T08:11:46.208Z,2.50
2022-12-24T08:14:16.639Z,3.63
2022-12-24T08:16:43.555Z,3.00
2022-12-24T08:19:10.361Z,3.42
2022-12-24T08:21:37.066Z,3.13
2022-12-24T08:24:04.069Z,3.10
2022-12-24T08:26:31.091Z,2.55
2022-12-24T08:28:57.856Z,2.22
2022-12-24T08:31:24.590Z,1.80
2022-12-24T08:33:51.313Z,2.08
2022-12-24T08:36:18.018Z,7.05
2022-12-24T08:38:44.768Z,5.20
2022-12-24T08:41:11.495Z,2.13
2022-12-24T08:43:38.299Z,1.80
2022-12-24T08:46:06.411Z,1.65
2022-12-24T08:48:34.075Z,1.50
2022-12-24T08:51:00.756Z,2.47
2022-12-24T08:53:27.510Z,2.50
2022-12-24T08:56:01.975Z,3.10
2022-12-24T09:00:56.085Z,1.98
2022-12-24T09:03:27.276Z,3.00
2022-12-24T09:05:55.130Z,2.38
2022-12-24T09:08:22.139Z,2.33
2022-12-24T09:10:48.885Z,2.15
2022-12-24T09:13:15.719Z,2.55
2022-12-24T09:15:42.428Z,2.28
2022-12-24T09:18:09.176Z,1.90
2022-12-24T09:20:36.065Z,1.80
2022-12-24T09:23:02.747Z,2.30
2022-12-24T09:25:29.456Z,2.50
2022-12-24T09:27:56.190Z,1.67
2022-12-24T09:30:22.941Z,1.58
2022-12-24T09:32:51.687Z,1.10
2022-12-24T09:35:18.424Z,1.30
2022-12-24T09:37:45.152Z,1.25
2022-12-24T09:40:25.515Z,1.50
2022-12-24T09:42:54.274Z,1.25
2022-12-24T09:45:33.312Z,2.00
2022-12-24T09:48:13.110Z,2.22
2022-12-24T09:51:03.139Z,2.35
2022-12-24T09:53:53.878Z,2.42
2022-12-24T09:56:33.863Z,4.90
2022-12-24T09:59:03.375Z,2.90
2022-12-24T10:01:32.455Z,5.00
2022-12-24T10:04:07.531Z,2.58
2022-12-24T10:06:49.240Z,3.58
2022-12-24T10:09:47.452Z,1.45
2022-12-24T10:12:39.793Z,1.60
2022-12-24T10:15:26.467Z,2.35
2022-12-24T10:18:12.219Z,2.20
2022-12-24T10:20:48.021Z,2.05
2022-12-24T10:23:24.225Z,1.55
2022-12-24T10:26:22.154Z,1.52
2022-12-24T10:28:53.348Z,1.40
2022-12-24T10:31:27.512Z,1.73
2022-12-24T10:33:59.845Z,1.77
2022-12-24T10:36:29.409Z,1.40
2022-12-24T10:38:56.940Z,1.70
2022-12-24T10:41:26.465Z,1.10
2022-12-24T10:43:54.229Z,1.50
2022-12-24T10:46:28.110Z,1.40
2022-12-24T10:49:01.965Z,1.60
2022-12-24T10:51:51.075Z,1.27
2022-12-24T10:54:26.608Z,1.17
2022-12-24T10:56:59.877Z,1.30
2022-12-24T10:59:53.725Z,1.30
2022-12-24T11:02:36.769Z,1.40
2022-12-24T11:05:07.951Z,1.23
2022-12-24T11:07:34.983Z,1.33
2022-12-24T11:10:08.538Z,1.48
2022-12-24T11:12:55.697Z,1.20
2022-12-24T11:15:34.636Z,1.10
2022-12-24T11:18:05.498Z,1.10
2022-12-24T11:20:35.754Z,1.90
2022-12-24T11:23:02.836Z,0.90
2022-12-24T11:25:32.341Z,1.00
2022-12-24T11:28:22.934Z,1.25
2022-12-24T11:31:01.265Z,1.00
2022-12-24T11:33:30.064Z,1.10
2022-12-24T11:36:02.453Z,1.30
2022-12-24T11:38:31.869Z,2.30
2022-12-24T11:41:06.218Z,1.10
2022-12-24T11:43:48.744Z,7.85
2022-12-24T11:46:37.948Z,1.00
2022-12-24T11:49:23.699Z,2.20
2022-12-24T11:52:21.177Z,2.70
2022-12-24T11:55:26.972Z,1.60
2022-12-24T11:58:03.085Z,1.15
2022-12-24T12:00:30.223Z,3.15
2022-12-24T12:03:01.807Z,1.30
2022-12-24T12:05:33.116Z,2.30
2022-12-24T12:08:15.358Z,1.40
2022-12-24T12:10:43.911Z,1.40
2022-12-24T12:13:17.803Z,2.95
2022-12-24T12:15:50.421Z,1.20
2022-12-24T12:18:23.883Z,1.48
2022-12-24T12:21:07.581Z,1.00
2022-12-24T12:23:38.244Z,2.60
2022-12-24T12:26:11.140Z,1.02
2022-12-24T12:28:56.724Z,1.50
2022-12-24T12:31:44.640Z,1.00
2022-12-24T12:34:21.106Z,1.08
2022-12-24T12:36:58.437Z,1.10
2022-12-24T12:39:25.345Z,3.30
2022-12-24T12:42:16.615Z,1.20
2022-12-24T12:44:58.345Z,1.20
2022-12-24T12:47:34.363Z,1.77
2022-12-24T12:50:30.483Z,2.25
2022-12-24T12:53:16.292Z,1.13
2022-12-24T12:56:01.647Z,3.95
2022-12-24T12:58:44.359Z,1.70
2022-12-24T13:01:16.733Z,1.80
2022-12-24T13:04:21.129Z,2.53
2022-12-24T13:06:59.891Z,1.30
2022-12-24T13:09:40.908Z,1.80
2022-12-24T13:12:29.173Z,2.70
2022-12-24T13:15:14.181Z,2.67
2022-12-24T13:18:15.761Z,2.20
2022-12-24T13:20:48.379Z,1.90
2022-12-24T13:23:18.730Z,2.17
2022-12-24T13:25:54.020Z,2.60
2022-12-24T13:28:20.742Z,3.50
2022-12-24T13:30:52.953Z,4.30
2022-12-24T13:33:38.011Z,4.65
2022-12-24T13:36:07.374Z,3.17
2022-12-24T13:38:53.057Z,4.43
2022-12-24T13:41:38.287Z,4.13
2022-12-24T13:44:16.081Z,3.05
2022-12-24T13:46:56.711Z,2.17
2022-12-24T13:49:43.554Z,3.30
2022-12-24T13:52:14.459Z,5.43
2022-12-24T13:55:04.836Z,2.33
2022-12-24T13:57:39.372Z,3.40
2022-12-24T14:00:12.514Z,2.60
2022-12-24T14:03:00.460Z,4.18
2022-12-24T14:05:42.938Z,6.63
2022-12-24T14:08:14.102Z,3.60
2022-12-24T14:10:45.005Z,3.08
2022-12-24T14:13:40.710Z,2.50
2022-12-24T14:16:16.383Z,1.90
2022-12-24T14:18:47.075Z,7.50
2022-12-24T14:21:22.476Z,2.10
2022-12-24T14:24:24.837Z,2.58
2022-12-24T14:27:14.072Z,1.92
2022-12-24T14:29:50.631Z,1.85
2022-12-24T14:32:17.696Z,3.50
2022-12-24T14:34:44.806Z,1.83
2022-12-24T14:37:13.705Z,2.03
2022-12-24T14:39:48.771Z,1.77
2022-12-24T14:42:38.955Z,1.90
2022-12-24T14:45:25.348Z,2.97
2022-12-24T14:48:16.244Z,2.65
2022-12-24T14:51:12.148Z,3.30
2022-12-24T14:54:19.016Z,3.10
2022-12-24T14:56:47.659Z,2.95
2022-12-24T14:59:17.325Z,3.78
2022-12-24T15:01:44.635Z,2.60
2022-12-24T15:04:11.430Z,2.00
2022-12-24T15:06:50.433Z,2.00
2022-12-24T15:09:21.306Z,2.58
2022-12-24T15:11:51.641Z,2.08
2022-12-24T15:14:19.672Z,2.30
2022-12-24T15:17:13.197Z,2.25
2022-12-24T15:19:44.274Z,1.80
2022-12-24T15:22:31.355Z,2.03
2022-12-24T15:24:58.183Z,1.90
2022-12-24T15:27:27.822Z,2.20
2022-12-24T15:29:57.952Z,2.90
2022-12-24T15:32:24.757Z,3.95
2022-12-24T15:34:55.341Z,2.72
2022-12-24T15:37:25.180Z,4.05
2022-12-24T15:40:11.199Z,3.70
2022-12-24T15:42:42.311Z,4.40
2022-12-24T15:45:28.491Z,4.80
2022-12-24T15:47:58.707Z,5.80
2022-12-24T15:50:46.775Z,4.55
2022-12-24T15:53:22.363Z,4.80
2022-12-24T15:56:10.176Z,8.82
2022-12-24T15:58:46.806Z,7.20
2022-12-24T16:01:13.573Z,6.90
2022-12-24T16:03:42.287Z,5.97
2022-12-24T16:06:11.657Z,6.20
2022-12-24T16:08:40.068Z,8.27
2022-12-24T16:11:28.457Z,8.68
2022-12-24T16:14:04.505Z,5.57
2022-12-24T16:16:37.914Z,5.13
2022-12-24T16:19:07.084Z,2.03
2022-12-24T16:21:41.515Z,3.08
2022-12-24T16:24:16.953Z,3.10
2022-12-24T16:26:43.631Z,2.90
2022-12-24T16:29:11.955Z,3.00
2022-12-24T16:31:50.959Z,5.15
2022-12-24T16:34:18.275Z,2.80
2022-12-24T16:36:46.135Z,2.90
2022-12-24T16:39:24.947Z,2.28
2022-12-24T16:42:14.870Z,3.03
2022-12-24T16:44:42.140Z,2.65
2022-12-24T16:47:32.394Z,2.33
2022-12-24T16:50:03.421Z,2.88
2022-12-24T16:52:33.597Z,2.67
2022-12-24T16:55:00.941Z,3.17
2022-12-24T16:57:27.933Z,2.75
2022-12-24T16:59:55.021Z,3.15
2022-12-24T17:02:23.835Z,2.70
2022-12-24T17:04:50.969Z,2.30
2022-12-24T17:07:19.949Z,2.42
2022-12-24T17:09:46.661Z,2.03
2022-12-24T17:12:14.162Z,2.50
2022-12-24T17:14:42.273Z,3.75
2022-12-24T17:17:26.539Z,5.82
2022-12-24T17:19:53.652Z,4.45
2022-12-24T17:22:20.426Z,3.83
2022-12-24T17:24:47.249Z,4.07
2022-12-24T17:27:14.579Z,4.10
2022-12-24T17:29:41.376Z,3.55
2022-12-24T17:32:08.166Z,4.65
2022-12-24T17:34:35.119Z,5.45
2022-12-24T17:37:01.807Z,7.25
2022-12-24T17:39:28.486Z,7.70
2022-12-24T17:41:55.258Z,2.63
2022-12-24T17:44:21.968Z,2.00
2022-12-24T17:46:49.188Z,3.25
2022-12-24T17:49:15.934Z,2.95
2022-12-24T17:51:45.591Z,4.00
2022-12-24T17:54:13.491Z,2.58
2022-12-24T17:56:40.218Z,2.75
2022-12-24T17:59:06.960Z,3.58
2022-12-24T18:01:33.792Z,3.88
2022-12-24T18:04:02.204Z,3.88
2022-12-24T18:06:29.427Z,2.92
2022-12-24T18:08:56.276Z,2.83
2022-12-24T18:11:32.913Z,3.40
2022-12-24T18:14:01.108Z,3.00
2022-12-24T18:16:27.811Z,1.90
2022-12-24T18:18:55.321Z,1.92
2022-12-24T18:21:24.450Z,2.63
2022-12-24T18:23:52.661Z,3.15
2022-12-24T18:26:20.322Z,1.98
2022-12-24T18:28:47.552Z,2.28
2022-12-24T18:31:18.004Z,2.35
2022-12-24T18:33:46.802Z,2.10
2022-12-24T18:36:14.244Z,2.17
2022-12-24T18:38:41.409Z,2.10
2022-12-24T18:41:21.239Z,2.47
2022-12-24T18:43:48.687Z,2.70
2022-12-24T18:46:21.589Z,5.70
2022-12-24T18:48:48.603Z,5.72
2022-12-24T18:51:16.787Z,5.90
2022-12-24T18:53:44.045Z,4.13
2022-12-24T18:56:29.830Z,5.90
2022-12-24T18:58:58.690Z,4.05
2022-12-24T19:01:28.177Z,4.57
2022-12-24T19:03:55.519Z,3.55
2022-12-24T19:06:23.131Z,4.43
2022-12-24T19:08:59.702Z,3.60
2022-12-24T19:11:29.167Z,4.00
2022-12-24T19:13:58.001Z,3.55
2022-12-24T19:16:25.645Z,3.83
2022-12-24T19:18:52.395Z,5.88
2022-12-24T19:21:19.201Z,6.72
2022-12-24T19:23:47.317Z,6.00
2022-12-24T19:26:15.981Z,6.30
2022-12-24T19:28:42.963Z,3.80
2022-12-24T19:31:16.103Z,4.30
2022-12-24T19:33:48.643Z,3.30
2022-12-24T19:36:18.089Z,4.22
2022-12-24T19:38:45.461Z,2.60
2022-12-24T19:41:17.758Z,3.40
2022-12-24T19:43:47.534Z,3.05
2022-12-24T19:46:17.402Z,2.75
2022-12-24T19:48:47.748Z,2.50
2022-12-24T19:51:14.402Z,2.92
2022-12-24T19:53:41.269Z,2.33
2022-12-24T19:56:09.053Z,2.50
2022-12-24T19:58:36.093Z,2.20
2022-12-24T20:01:12.705Z,2.20
2022-12-24T20:03:41.816Z,2.40
2022-12-24T20:06:08.794Z,2.00
2022-12-24T20:08:36.347Z,2.63
2022-12-24T20:11:12.100Z,2.78
2022-12-24T20:13:39.532Z,2.50
2022-12-24T20:16:16.162Z,2.55
2022-12-24T20:18:43.145Z,1.90
2022-12-24T20:21:11.968Z,1.98
2022-12-24T20:23:40.590Z,2.58
2022-12-24T20:26:09.182Z,2.70
2022-12-24T20:28:37.331Z,2.03
2022-12-24T20:31:23.497Z,3.20
2022-12-24T20:33:50.604Z,3.42
2022-12-24T20:36:19.883Z,3.80
2022-12-24T20:38:47.590Z,3.08
2022-12-24T20:41:17.883Z,3.20
2022-12-24T20:43:48.275Z,2.95
2022-12-24T20:46:16.893Z,2.10
2022-12-24T20:48:43.695Z,2.20
2022-12-24T20:51:22.773Z,2.38
2022-12-24T20:53:52.525Z,2.35
2022-12-24T20:56:19.304Z,2.20
2022-12-24T20:58:46.671Z,2.47
2022-12-24T21:01:19.276Z,2.60
2022-12-24T21:03:46.320Z,2.70
2022-12-24T21:06:13.882Z,2.88
2022-12-24T21:08:40.583Z,2.55
2022-12-24T21:11:33.092Z,2.75
2022-12-24T21:14:02.256Z,3.45
2022-12-24T21:16:30.970Z,3.30
2022-12-24T21:18:57.758Z,4.15
2022-12-24T21:21:24.535Z,3.75
2022-12-24T21:23:52.603Z,3.30
2022-12-24T21:26:19.328Z,4.00
2022-12-24T21:28:46.321Z,5.30
2022-12-24T21:31:14.087Z,4.13
2022-12-24T21:33:41.312Z,8.15
2022-12-24T21:36:09.677Z,8.48
2022-12-24T21:38:36.405Z,6.03
2022-12-24T21:41:10.191Z,8.80
2022-12-24T21:43:37.832Z,6.10
2022-12-24T21:46:22.216Z,4.15
2022-12-24T21:49:12.724Z,5.97
2022-12-24T21:51:41.294Z,7.32
2022-12-24T21:54:23.116Z,6.90
2022-12-24T21:57:24.487Z,6.38
2022-12-24T21:59:57.335Z,4.70
2022-12-24T22:02:28.402Z,5.57
2022-12-24T22:04:55.551Z,6.20
2022-12-24T22:07:43.834Z,4.90
2022-12-24T22:10:30.791Z,4.68
2022-12-24T22:13:00.190Z,5.20
2022-12-24T22:15:27.388Z,5.13
2022-12-24T22:17:54.067Z,4.45
2022-12-24T22:20:20.991Z,4.75
2022-12-24T22:22:48.827Z,3.88
2022-12-24T22:25:16.353Z,4.95
2022-12-24T22:27:43.070Z,5.32
2022-12-24T22:30:10.350Z,5.22
2022-12-24T22:32:37.037Z,4.82
2022-12-24T22:35:04.200Z,4.80
2022-12-24T22:37:30.848Z,4.90
2022-12-24T22:39:57.524Z,5.25
2022-12-24T22:42:24.217Z,4.90
2022-12-24T22:44:50.867Z,5.60
2022-12-24T22:47:17.535Z,6.38
2022-12-24T22:49:44.216Z,5.28
2022-12-24T22:52:10.898Z,4.93
2022-12-24T22:54:37.610Z,4.70
2022-12-24T22:57:04.306Z,4.47
2022-12-24T22:59:31.130Z,4.45
2022-12-24T23:01:58.524Z,4.22
2022-12-24T23:04:25.878Z,4.35
2022-12-24T23:06:52.626Z,4.47
2022-12-24T23:09:19.443Z,4.38
2022-12-24T23:11:46.147Z,4.60
2022-12-24T23:14:37.313Z,4.55
2022-12-24T23:17:04.597Z,5.00
2022-12-24T23:19:33.415Z,4.70
2022-12-24T23:22:02.075Z,4.80
2022-12-24T23:24:29.299Z,4.53
2022-12-24T23:26:56.270Z,4.85
2022-12-24T23:29:23.122Z,5.07
2022-12-24T23:31:49.786Z,4.60
2022-12-24T23:34:16.446Z,4.47
2022-12-24T23:36:43.106Z,4.53
2022-12-24T23:39:09.844Z,5.20
2022-12-24T23:41:36.499Z,5.15
2022-12-24T23:44:03.298Z,6.20
2022-12-24T23:46:30.367Z,5.55
2022-12-24T23:48:57.221Z,5.10
2022-12-24T23:51:26.193Z,5.70
2022-12-24T23:53:54.441Z,5.53
2022-12-24T23:56:22.714Z,5.10
2022-12-24T23:58:49.468Z,6.10
